createdAt,value
2018-04-11T00:00:31.079Z,8.60
2018-04-11T00:02:57.925Z,8.70
2018-04-11T00:05:24.004Z,8.70
2018-04-11T00:07:50.099Z,8.70
2018-04-11T00:10:16.183Z,8.70
2018-04-11T00:12:42.317Z,8.80
2018-04-11T00:15:08.416Z,8.80
2018-04-11T00:17:34.529Z,8.80
2018-04-11T00:20:00.613Z,8.70
2018-04-11T00:22:27.442Z,8.70
2018-04-11T00:24:53.522Z,8.70
2018-04-11T00:27:19.623Z,8.70
2018-04-11T00:29:45.785Z,8.70
2018-04-11T00:32:12.602Z,8.80
2018-04-11T00:34:38.705Z,8.70
2018-04-11T00:37:04.815Z,8.80
2018-04-11T00:39:31.625Z,8.80
2018-04-11T00:41:57.741Z,8.80
2018-04-11T00:44:23.835Z,8.80
2018-04-11T00:46:50.666Z,8.80
2018-04-11T00:49:16.761Z,8.70
2018-04-11T00:51:42.853Z,8.70
2018-04-11T00:54:08.963Z,8.70
2018-04-11T00:56:35.033Z,8.60
2018-04-11T00:59:01.137Z,8.60
2018-04-11T01:01:27.246Z,8.60
2018-04-11T01:03:53.352Z,8.60
2018-04-11T01:06:20.175Z,8.60
2018-04-11T01:08:46.277Z,8.50
2018-04-11T01:11:12.365Z,8.60
2018-04-11T01:13:38.466Z,8.50
2018-04-11T01:16:04.546Z,8.50
2018-04-11T01:18:30.724Z,8.50
2018-04-11T01:20:56.796Z,8.50
2018-04-11T01:23:22.872Z,8.40
2018-04-11T01:25:49.685Z,8.50
2018-04-11T01:28:15.779Z,8.40
2018-04-11T01:30:42.608Z,8.40
2018-04-11T01:33:08.694Z,8.40
2018-04-11T01:35:34.769Z,8.40
2018-04-11T01:38:00.855Z,8.40
2018-04-11T01:40:26.928Z,8.40
2018-04-11T01:42:53.012Z,8.40
2018-04-11T01:45:19.813Z,8.40
2018-04-11T01:47:45.876Z,8.40
2018-04-11T01:50:11.950Z,8.40
2018-04-11T01:52:38.771Z,8.30
2018-04-11T01:55:04.844Z,8.30
2018-04-11T01:57:31.667Z,8.30
2018-04-11T01:59:57.750Z,8.30
2018-04-11T02:02:23.820Z,8.30
2018-04-11T02:04:49.920Z,8.40
2018-04-11T02:07:15.973Z,8.40
2018-04-11T02:09:42.135Z,8.40
2018-04-11T02:12:08.238Z,8.40
2018-04-11T02:14:34.341Z,8.30
2018-04-11T02:17:00.408Z,8.40
2018-04-11T02:19:27.221Z,8.30
2018-04-11T02:21:53.288Z,8.30
2018-04-11T02:24:20.103Z,8.30
2018-04-11T02:26:46.164Z,8.30
2018-04-11T02:29:12.257Z,8.30
2018-04-11T02:31:38.322Z,8.30
2018-04-11T02:34:04.467Z,8.30
2018-04-11T02:36:30.549Z,8.30
2018-04-11T02:38:57.364Z,8.20
2018-04-11T02:41:23.424Z,8.20
2018-04-11T02:43:49.499Z,8.20
2018-04-11T02:46:15.572Z,8.20
2018-04-11T02:48:41.638Z,8.20
2018-04-11T02:51:08.437Z,8.10
2018-04-11T02:53:34.526Z,8.10
2018-04-11T02:56:00.588Z,8.10
2018-04-11T02:58:27.396Z,8.10
2018-04-11T03:00:53.465Z,8.00
2018-04-11T03:03:20.286Z,8.00
2018-04-11T03:05:46.347Z,8.00
2018-04-11T03:08:12.420Z,8.00
2018-04-11T03:10:38.475Z,8.00
2018-04-11T03:13:04.552Z,7.90
2018-04-11T03:15:30.631Z,7.90
2018-04-11T03:17:56.712Z,7.90
2018-04-11T03:20:22.792Z,7.90
2018-04-11T03:22:49.628Z,7.90
2018-04-11T03:25:15.693Z,7.90
2018-04-11T03:27:41.740Z,7.90
2018-04-11T03:30:07.810Z,7.80
2018-04-11T03:32:33.873Z,7.80
2018-04-11T03:34:59.973Z,7.80
2018-04-11T03:37:26.042Z,7.90
2018-04-11T03:39:52.129Z,7.90
2018-04-11T03:42:18.244Z,7.90
2018-04-11T03:44:45.069Z,8.00
2018-04-11T03:47:11.148Z,7.90
2018-04-11T03:49:37.220Z,8.00
2018-04-11T03:52:03.293Z,8.00
2018-04-11T03:54:29.372Z,8.00
2018-04-11T03:56:55.434Z,8.00
2018-04-11T03:59:21.498Z,8.00
2018-04-11T04:01:47.567Z,8.00
2018-04-11T04:04:13.639Z,8.00
2018-04-11T04:06:39.718Z,8.00
2018-04-11T04:09:05.799Z,8.00
2018-04-11T04:11:31.934Z,8.00
2018-04-11T04:14:10.270Z,8.00
2018-04-11T04:16:48.684Z,8.00
2018-04-11T04:22:21.132Z,8.00
2018-04-11T04:24:47.192Z,8.00
2018-04-11T04:27:13.270Z,8.00
2018-04-11T04:29:39.352Z,8.00
2018-04-11T04:32:05.434Z,8.00
2018-04-11T04:34:32.270Z,7.90
2018-04-11T04:36:58.334Z,7.90
2018-04-11T04:39:25.192Z,7.90
2018-04-11T04:41:51.252Z,7.90
2018-04-11T04:44:17.329Z,7.90
2018-04-11T04:46:43.384Z,7.90
2018-04-11T04:49:09.470Z,7.90
2018-04-11T04:51:35.556Z,8.00
2018-04-11T04:54:01.741Z,8.00
2018-04-11T04:56:27.801Z,8.00
2018-04-11T04:58:53.893Z,7.90
2018-04-11T05:01:19.976Z,7.90
2018-04-11T05:03:46.064Z,8.00
2018-04-11T05:06:12.868Z,7.90
2018-04-11T05:08:38.940Z,7.90
2018-04-11T05:11:05.763Z,8.10
2018-04-11T05:13:31.859Z,8.10
2018-04-11T05:15:57.954Z,8.10
2018-04-11T05:18:24.017Z,8.10
2018-04-11T05:20:50.846Z,8.10
2018-04-11T05:23:16.919Z,8.10
2018-04-11T05:25:43.016Z,8.10
2018-04-11T05:28:09.095Z,8.10
2018-04-11T05:30:35.255Z,8.10
2018-04-11T05:33:01.323Z,8.10
2018-04-11T05:35:27.426Z,8.10
2018-04-11T05:37:53.551Z,8.20
2018-04-11T05:40:19.646Z,8.10
2018-04-11T05:42:45.719Z,8.10
2018-04-11T05:45:11.800Z,8.20
2018-04-11T05:47:37.869Z,8.20
2018-04-11T05:50:03.954Z,8.20
2018-04-11T05:52:30.026Z,8.30
2018-04-11T05:54:56.109Z,8.30
2018-04-11T05:57:22.915Z,8.30
2018-04-11T05:59:49.010Z,8.30
2018-04-11T06:02:15.083Z,8.40
2018-04-11T06:04:41.191Z,8.40
2018-04-11T06:07:07.278Z,8.50
2018-04-11T06:09:33.374Z,8.40
2018-04-11T06:11:59.490Z,8.50
2018-04-11T06:14:25.567Z,8.50
2018-04-11T06:16:51.648Z,8.50
2018-04-11T06:19:18.467Z,8.60
2018-04-11T06:21:44.545Z,8.60
2018-04-11T06:24:11.361Z,8.70
2018-04-11T06:26:37.434Z,8.70
2018-04-11T06:29:04.254Z,8.80
2018-04-11T06:31:30.329Z,8.80
2018-04-11T06:33:57.163Z,9.00
2018-04-11T06:36:23.255Z,8.90
2018-04-11T06:38:50.065Z,9.00
2018-04-11T06:41:16.152Z,9.00
2018-04-11T06:43:42.218Z,9.10
2018-04-11T06:46:08.350Z,9.10
2018-04-11T06:48:34.371Z,9.10
2018-04-11T06:51:00.455Z,9.10
2018-04-11T06:53:27.258Z,9.10
2018-04-11T06:55:53.350Z,9.10
2018-04-11T06:58:20.193Z,9.10
2018-04-11T07:00:46.248Z,9.10
2018-04-11T07:03:13.056Z,9.20
2018-04-11T07:05:39.144Z,9.20
2018-04-11T07:08:05.962Z,9.30
2018-04-11T07:10:32.057Z,9.20
2018-04-11T07:12:58.119Z,9.40
2018-04-11T07:15:24.195Z,9.40
2018-04-11T07:17:50.348Z,9.50
2018-04-11T07:20:17.226Z,9.50
2018-04-11T07:22:43.290Z,9.50
2018-04-11T07:25:09.376Z,9.60
2018-04-11T07:27:36.186Z,9.60
2018-04-11T07:30:02.283Z,9.60
2018-04-11T07:32:28.353Z,9.60
2018-04-11T07:34:54.436Z,9.70
2018-04-11T07:37:20.490Z,9.70
2018-04-11T07:39:46.564Z,9.70
2018-04-11T07:42:12.618Z,9.80
2018-04-11T07:44:38.694Z,9.90
2018-04-11T07:47:05.498Z,10.00
2018-04-11T07:49:31.554Z,10.00
2018-04-11T07:51:57.634Z,10.20
2018-04-11T07:54:23.701Z,10.30
2018-04-11T07:56:49.796Z,10.40
2018-04-11T07:59:16.615Z,11.10
2018-04-11T08:01:42.694Z,11.10
2018-04-11T08:04:09.511Z,11.30
2018-04-11T08:06:35.595Z,11.30
2018-04-11T08:09:01.675Z,11.50
2018-04-11T08:11:27.764Z,11.90
2018-04-11T08:13:54.590Z,11.70
2018-04-11T08:16:20.719Z,11.70
2018-04-11T08:18:46.746Z,11.90
2018-04-11T08:21:12.850Z,12.10
2018-04-11T08:23:38.856Z,12.10
2018-04-11T08:26:05.684Z,11.30
2018-04-11T08:28:31.765Z,11.30
2018-04-11T08:30:57.852Z,11.20
2018-04-11T08:33:23.932Z,11.30
2018-04-11T08:35:50.752Z,11.50
2018-04-11T08:38:16.810Z,11.50
2018-04-11T08:40:42.882Z,11.60
2018-04-11T08:43:08.953Z,11.70
2018-04-11T08:45:35.041Z,11.70
2018-04-11T08:48:01.883Z,11.90
2018-04-11T08:50:28.698Z,11.90
2018-04-11T08:52:54.751Z,11.90
2018-04-11T08:55:20.830Z,11.90
2018-04-11T08:57:46.892Z,12.00
2018-04-11T09:00:12.978Z,12.10
2018-04-11T09:02:39.033Z,12.00
2018-04-11T09:05:05.853Z,11.70
2018-04-11T09:07:31.941Z,11.70
2018-04-11T09:09:58.015Z,11.90
2018-04-11T09:12:24.105Z,12.10
2018-04-11T09:14:50.164Z,12.10
2018-04-11T09:17:17.010Z,12.40
2018-04-11T09:19:43.081Z,12.30
2018-04-11T09:22:09.166Z,12.50
2018-04-11T09:24:35.963Z,12.10
2018-04-11T09:27:02.050Z,12.10
2018-04-11T09:29:28.853Z,12.20
2018-04-11T09:31:54.945Z,12.10
2018-04-11T09:34:21.744Z,12.50
2018-04-11T09:36:47.816Z,12.50
2018-04-11T09:39:13.882Z,12.80
2018-04-11T09:41:39.977Z,12.90
2018-04-11T09:44:06.053Z,12.60
2018-04-11T09:46:32.874Z,12.60
2018-04-11T09:48:58.950Z,12.60
2018-04-11T09:51:25.779Z,12.70
2018-04-11T09:53:51.853Z,12.70
2018-04-11T09:56:17.937Z,12.90
2018-04-11T09:58:44.009Z,13.10
2018-04-11T10:01:16.839Z,13.50
2018-04-11T10:03:44.690Z,13.50
2018-04-11T10:06:11.519Z,13.40
2018-04-11T10:08:37.621Z,13.40
2018-04-11T10:11:03.702Z,13.40
2018-04-11T10:13:29.769Z,13.50
2018-04-11T10:15:55.857Z,13.50
2018-04-11T10:18:21.944Z,13.90
2018-04-11T10:20:48.012Z,13.80
2018-04-11T10:23:14.105Z,13.80
2018-04-11T10:25:40.916Z,13.50
2018-04-11T10:28:06.991Z,13.50
2018-04-11T10:30:33.810Z,13.90
2018-04-11T10:32:59.904Z,13.90
2018-04-11T10:35:25.966Z,14.10
2018-04-11T10:37:52.046Z,14.50
2018-04-11T10:40:18.117Z,14.50
2018-04-11T10:42:44.197Z,14.70
2018-04-11T10:45:10.253Z,14.70
2018-04-11T10:47:36.337Z,14.90
2018-04-11T10:50:02.423Z,15.00
2018-04-11T10:52:28.500Z,15.00
2018-04-11T10:54:54.562Z,15.10
2018-04-11T10:57:20.648Z,15.10
2018-04-11T10:59:46.717Z,15.30
2018-04-11T11:02:12.806Z,15.40
2018-04-11T11:04:38.885Z,15.50
2018-04-11T11:07:05.702Z,15.80
2018-04-11T11:09:31.769Z,15.80
2018-04-11T11:11:58.594Z,16.00
2018-04-11T11:14:24.653Z,16.00
2018-04-11T11:16:51.486Z,16.20
2018-04-11T11:19:17.557Z,16.20
2018-04-11T11:21:44.432Z,16.10
2018-04-11T11:24:10.487Z,16.10
2018-04-11T11:26:36.593Z,16.10
2018-04-11T11:29:03.397Z,16.40
2018-04-11T11:31:29.478Z,16.40
2018-04-11T11:33:56.318Z,16.60
2018-04-11T11:36:22.391Z,16.60
2018-04-11T11:38:48.449Z,16.60
2018-04-11T11:41:14.524Z,16.80
2018-04-11T11:43:40.590Z,16.80
2018-04-11T11:46:06.666Z,16.80
2018-04-11T11:48:32.724Z,16.80
2018-04-11T11:50:58.773Z,16.70
2018-04-11T11:53:24.838Z,16.70
2018-04-11T11:55:51.653Z,17.20
2018-04-11T11:58:17.950Z,17.20
2018-04-11T12:00:44.006Z,17.10
2018-04-11T12:03:10.088Z,16.90
2018-04-11T12:05:36.144Z,16.90
2018-04-11T12:08:02.961Z,17.00
2018-04-11T12:10:29.021Z,17.00
2018-04-11T12:12:55.089Z,17.40
2018-04-11T12:15:21.144Z,17.30
2018-04-11T12:17:47.257Z,17.20
2018-04-11T12:20:13.318Z,17.20
2018-04-11T12:22:39.422Z,17.60
2018-04-11T12:25:06.281Z,17.40
2018-04-11T12:27:32.310Z,17.30
2018-04-11T12:29:59.100Z,17.20
2018-04-11T12:32:25.178Z,17.20
2018-04-11T12:34:51.254Z,17.50
2018-04-11T12:37:17.340Z,17.90
2018-04-11T12:39:43.405Z,18.20
2018-04-11T12:42:10.225Z,18.00
2018-04-11T12:44:36.319Z,18.00
2018-04-11T12:47:02.392Z,17.90
2018-04-11T12:49:28.440Z,17.70
2018-04-11T12:51:54.518Z,17.70
2018-04-11T12:54:21.362Z,18.70
2018-04-11T12:56:48.470Z,19.00
2018-04-11T12:59:14.525Z,19.00
2018-04-11T13:01:40.601Z,18.80
2018-04-11T13:04:06.681Z,18.40
2018-04-11T13:06:32.741Z,18.00
2018-04-11T13:08:58.819Z,17.80
2018-04-11T13:11:25.624Z,17.60
2018-04-11T13:13:51.714Z,17.50
2018-04-11T13:16:18.545Z,17.50
2018-04-11T13:18:44.644Z,17.50
2018-04-11T13:21:10.765Z,17.50
2018-04-11T13:23:36.841Z,17.50
2018-04-11T13:26:02.930Z,17.40
2018-04-11T13:28:29.753Z,17.90
2018-04-11T13:30:55.926Z,17.80
2018-04-11T13:33:22.011Z,18.50
2018-04-11T13:35:48.069Z,19.30
2018-04-11T13:38:14.142Z,20.10
2018-04-11T13:40:40.288Z,20.60
2018-04-11T13:43:06.376Z,21.20
2018-04-11T13:45:32.579Z,21.10
2018-04-11T13:47:58.722Z,20.90
2018-04-11T13:50:24.785Z,20.70
2018-04-11T13:52:50.885Z,21.00
2018-04-11T13:55:16.945Z,21.90
2018-04-11T13:57:43.030Z,23.00
2018-04-11T14:00:09.833Z,24.90
2018-04-11T14:02:35.941Z,24.80
2018-04-11T14:05:02.021Z,25.20
2018-04-11T14:07:28.128Z,25.40
2018-04-11T14:09:54.208Z,25.70
2018-04-11T14:12:20.281Z,26.00
2018-04-11T14:14:47.083Z,26.10
2018-04-11T14:17:13.160Z,26.10
2018-04-11T14:19:39.216Z,25.90
2018-04-11T14:22:06.046Z,26.30
2018-04-11T14:24:32.158Z,26.30
2018-04-11T14:26:58.209Z,26.60
2018-04-11T14:29:24.301Z,26.70
2018-04-11T14:31:50.373Z,26.00
2018-04-11T14:34:16.457Z,24.40
2018-04-11T14:36:42.547Z,24.20
2018-04-11T14:39:08.622Z,25.40
2018-04-11T14:41:35.434Z,26.80
2018-04-11T14:44:01.512Z,26.80
2018-04-11T14:46:28.337Z,27.70
2018-04-11T14:48:54.429Z,27.60
2018-04-11T14:51:20.485Z,28.00
2018-04-11T14:53:46.552Z,28.00
2018-04-11T14:56:12.602Z,28.10
2018-04-11T14:58:38.660Z,28.30
2018-04-11T15:01:04.737Z,28.30
2018-04-11T15:03:30.856Z,28.20
2018-04-11T15:05:56.916Z,28.40
2018-04-11T15:08:23.018Z,27.30
2018-04-11T15:10:49.094Z,25.60
2018-04-11T15:13:15.165Z,23.40
2018-04-11T15:15:41.216Z,22.00
2018-04-11T15:18:07.287Z,20.90
2018-04-11T15:20:33.345Z,20.10
2018-04-11T15:22:59.445Z,19.70
2018-04-11T15:25:25.521Z,19.20
2018-04-11T15:27:51.600Z,18.90
2018-04-11T15:30:18.393Z,22.30
2018-04-11T15:32:44.528Z,22.20
2018-04-11T15:35:10.594Z,24.10
2018-04-11T15:37:36.672Z,24.70
2018-04-11T15:40:03.476Z,26.10
2018-04-11T15:42:29.553Z,26.10
2018-04-11T15:44:55.637Z,26.60
2018-04-11T15:47:21.690Z,26.70
2018-04-11T15:49:47.789Z,26.90
2018-04-11T15:52:13.865Z,26.90
2018-04-11T15:54:39.985Z,27.40
2018-04-11T15:57:06.053Z,27.10
2018-04-11T15:59:32.138Z,27.40
2018-04-11T16:01:59.030Z,27.50
2018-04-11T16:04:25.155Z,27.40
2018-04-11T16:06:51.245Z,27.60
2018-04-11T16:09:17.425Z,27.60
2018-04-11T16:11:43.484Z,27.70
2018-04-11T16:14:09.584Z,26.60
2018-04-11T16:16:35.662Z,26.20
2018-04-11T16:19:01.746Z,26.00
2018-04-11T16:21:28.552Z,26.60
2018-04-11T16:23:54.623Z,26.60
2018-04-11T16:26:20.726Z,26.30
2018-04-11T16:28:46.840Z,26.00
2018-04-11T16:31:12.905Z,25.90
2018-04-11T16:33:39.014Z,26.20
2018-04-11T16:36:05.068Z,26.30
2018-04-11T16:38:31.216Z,26.30
2018-04-11T16:40:57.240Z,26.30
2018-04-11T16:43:23.300Z,25.70
2018-04-11T16:45:49.356Z,25.20
2018-04-11T16:48:15.529Z,25.30
2018-04-11T16:50:42.343Z,24.60
2018-04-11T16:53:08.421Z,24.50
2018-04-11T16:55:34.480Z,24.20
2018-04-11T16:58:00.542Z,23.50
2018-04-11T17:00:26.633Z,23.00
2018-04-11T17:02:52.709Z,22.10
2018-04-11T17:05:18.826Z,22.20
2018-04-11T17:07:44.936Z,22.20
2018-04-11T17:10:11.768Z,22.20
2018-04-11T17:12:37.837Z,22.20
2018-04-11T17:15:03.948Z,22.20
2018-04-11T17:17:30.129Z,21.90
2018-04-11T17:19:56.252Z,21.50
2018-04-11T17:22:35.548Z,20.60
2018-04-11T17:25:13.855Z,20.60
2018-04-11T17:27:52.137Z,20.20
2018-04-11T17:30:31.305Z,19.60
2018-04-11T17:32:57.361Z,19.50
2018-04-11T17:35:23.430Z,19.80
2018-04-11T17:37:49.512Z,19.90
2018-04-11T17:40:15.580Z,19.80
2018-04-11T17:42:41.641Z,19.80
2018-04-11T17:45:07.734Z,19.40
2018-04-11T17:47:33.788Z,19.00
2018-04-11T17:49:59.914Z,18.90
2018-04-11T17:52:25.976Z,18.70
2018-04-11T17:54:52.067Z,18.40
2018-04-11T17:57:18.204Z,18.00
2018-04-11T17:59:45.042Z,17.10
2018-04-11T18:02:11.103Z,17.00
2018-04-11T18:04:37.926Z,16.10
2018-04-11T18:07:04.000Z,16.00
2018-04-11T18:09:30.132Z,15.70
2018-04-11T18:11:56.159Z,15.30
2018-04-11T18:14:22.258Z,15.00
2018-04-11T18:16:48.380Z,14.80
2018-04-11T18:19:14.504Z,14.60
2018-04-11T18:21:40.590Z,14.50
2018-04-11T18:24:06.662Z,14.30
2018-04-11T18:26:33.502Z,14.00
2018-04-11T18:28:59.560Z,13.90
2018-04-11T18:31:25.655Z,13.80
2018-04-11T18:33:51.749Z,13.60
2018-04-11T18:36:17.828Z,13.40
2018-04-11T18:38:43.895Z,13.30
2018-04-11T18:41:10.778Z,13.10
2018-04-11T18:43:36.915Z,13.00
2018-04-11T18:46:03.060Z,12.90
2018-04-11T18:48:29.177Z,12.90
2018-04-11T18:50:56.001Z,12.80
2018-04-11T18:53:22.175Z,12.70
2018-04-11T18:55:48.276Z,12.60
2018-04-11T18:58:14.356Z,12.50
2018-04-11T19:00:40.454Z,12.50
2018-04-11T19:03:06.621Z,12.50
2018-04-11T19:05:33.420Z,12.30
2018-04-11T19:07:59.504Z,12.30
2018-04-11T19:10:26.397Z,12.00
2018-04-11T19:12:52.487Z,12.00
2018-04-11T19:15:18.783Z,12.00
2018-04-11T19:17:44.922Z,11.90
2018-04-11T19:20:11.090Z,11.80
2018-04-11T19:22:37.175Z,11.70
2018-04-11T19:25:03.350Z,11.60
2018-04-11T19:27:29.440Z,11.60
2018-04-11T19:29:56.358Z,11.50
2018-04-11T19:32:22.454Z,11.50
2018-04-11T19:34:48.699Z,11.50
2018-04-11T19:37:15.533Z,11.30
2018-04-11T19:39:42.334Z,11.20
2018-04-11T19:42:08.422Z,11.20
2018-04-11T19:44:35.298Z,11.00
2018-04-11T19:47:02.314Z,11.00
2018-04-11T19:49:28.494Z,10.90
2018-04-11T19:51:54.591Z,10.70
2018-04-11T19:54:21.685Z,10.60
2018-04-11T19:56:47.767Z,10.50
2018-04-11T19:59:13.858Z,10.40
2018-04-11T20:01:40.694Z,10.20
2018-04-11T20:04:07.574Z,10.20
2018-04-11T20:06:34.449Z,10.10
2018-04-11T20:09:01.279Z,10.10
2018-04-11T20:11:28.100Z,10.00
2018-04-11T20:13:54.201Z,10.00
2018-04-11T20:16:20.299Z,9.90
2018-04-11T20:18:47.108Z,9.80
2018-04-11T20:21:13.218Z,9.80
2018-04-11T20:23:39.285Z,9.70
2018-04-11T20:26:05.364Z,9.60
2018-04-11T20:28:32.177Z,9.50
2018-04-11T20:30:58.311Z,9.50
2018-04-11T20:33:24.401Z,9.50
2018-04-11T20:35:51.288Z,9.50
2018-04-11T20:38:17.427Z,9.50
2018-04-11T20:40:43.505Z,9.50
2018-04-11T20:43:09.585Z,9.50
2018-04-11T20:45:35.707Z,9.50
2018-04-11T20:48:02.605Z,9.60
2018-04-11T20:50:28.713Z,9.60
2018-04-11T20:52:55.516Z,9.60
2018-04-11T20:55:21.620Z,9.60
2018-04-11T20:57:47.769Z,9.60
2018-04-11T21:00:13.856Z,9.70
2018-04-11T21:02:40.058Z,9.70
2018-04-11T21:05:06.113Z,9.60
2018-04-11T21:07:32.219Z,9.70
2018-04-11T21:09:58.276Z,9.70
2018-04-11T21:12:24.348Z,9.60
2018-04-11T21:14:50.435Z,9.60
2018-04-11T21:17:16.665Z,9.50
2018-04-11T21:19:42.762Z,9.40
2018-04-11T21:22:08.845Z,9.40
2018-04-11T21:24:34.969Z,9.30
2018-04-11T21:27:01.048Z,9.30
2018-04-11T21:29:27.109Z,9.20
2018-04-11T21:31:53.294Z,9.20
2018-04-11T21:34:19.368Z,9.20
2018-04-11T21:36:45.493Z,9.20
2018-04-11T21:39:11.579Z,9.10
2018-04-11T21:41:38.494Z,9.10
2018-04-11T21:44:04.561Z,9.10
2018-04-11T21:46:30.641Z,9.10
2018-04-11T21:48:56.773Z,9.00
2018-04-11T21:51:22.903Z,9.00
2018-04-11T21:53:48.981Z,8.90
2018-04-11T21:56:15.087Z,8.90
2018-04-11T21:58:41.144Z,8.80
2018-04-11T22:01:07.220Z,8.80
2018-04-11T22:03:33.415Z,8.70
2018-04-11T22:05:59.487Z,8.70
2018-04-11T22:08:25.549Z,8.80
2018-04-11T22:10:51.634Z,8.80
2018-04-11T22:13:17.709Z,8.80
2018-04-11T22:15:43.801Z,8.70
2018-04-11T22:18:09.921Z,8.70
2018-04-11T22:20:35.985Z,8.60
2018-04-11T22:23:02.069Z,8.60
2018-04-11T22:25:28.203Z,8.60
2018-04-11T22:27:54.269Z,8.60
2018-04-11T22:30:21.086Z,8.60
2018-04-11T22:32:47.210Z,8.60
2018-04-11T22:35:13.293Z,8.60
2018-04-11T22:37:40.104Z,8.50
2018-04-11T22:40:06.201Z,8.50
2018-04-11T22:42:33.037Z,8.50
2018-04-11T22:44:59.873Z,8.50
2018-04-11T22:47:26.066Z,8.40
2018-04-11T22:49:52.133Z,8.50
2018-04-11T22:52:18.232Z,8.40
2018-04-11T22:54:44.323Z,8.40
2018-04-11T22:57:10.407Z,8.30
2018-04-11T22:59:36.505Z,8.30
2018-04-11T23:02:02.700Z,8.30
2018-04-11T23:04:28.782Z,8.30
2018-04-11T23:06:54.874Z,8.20
2018-04-11T23:09:20.975Z,8.10
2018-04-11T23:11:47.821Z,8.10
2018-04-11T23:14:14.649Z,8.00
2018-04-11T23:16:40.773Z,8.00
2018-04-11T23:19:06.852Z,8.00
2018-04-11T23:21:32.933Z,8.00
2018-04-11T23:23:59.035Z,8.10
2018-04-11T23:26:25.135Z,8.00
2018-04-11T23:28:51.959Z,8.00
2018-04-11T23:31:18.053Z,8.00
2018-04-11T23:33:44.887Z,8.00
2018-04-11T23:36:11.726Z,8.20
2018-04-11T23:38:37.792Z,8.10
2018-04-11T23:41:03.865Z,8.10
2018-04-11T23:43:30.686Z,8.30
2018-04-11T23:45:56.760Z,8.20
2018-04-11T23:48:22.861Z,8.20
2018-04-11T23:50:48.933Z,8.20
2018-04-11T23:53:15.759Z,8.30
2018-04-11T23:55:41.945Z,8.30
2018-04-11T23:58:08.033Z,8.30
